Vårt webkamera more information My webcam


webkamera på Randaberg more information webcam on Randaberg


Lynradar more information blitzortung!


Nedbørsradar more information rain snow radar


Besøk vår andre værside:

Alternativ webside

Vr Vrstasjon p Randaberg

Alternativ mobil



Ikke nødvendig med spesiell oppmerksomhet.    Det er ingen advarsler

Weather Underground Logg Tekst

Daglig sammendrag for Februar 20, 2018 enheter:  Metric    Engelsk   Begge
« Forrige Dag
Neste Dag »
Daglig Weekly Månedlig Årlig Custom
  Gjeldene: Max: Min: Snitt:
Temperatur: -17.2 °C -17.8 °C -17.6 °C -16.5 °C
Duggpunkt: -18.9 °C -17.8 °C -20.2 °C -19.6 °C
Fuktighet: 80 % Humidity % 56 % 67 %
Vind: 0 km/h 0 km/h 0 km/h 6.3 km/h
Vindkast: 0 km/h 0 km/h - -
Vind:Calm - - ESE
Trykk: 34760.7 hPa 0 hPa 34625.2 hPa -
NedbØr: 0 mm      
Historical Graphs
 
 
Tabelldata for Februar 20, 2018
Tid Temperatur Duggpunkt Trykk Vind Vind Vindkast Fuktighet Regn Intensitet (Time)
-17.8 °C -17.8 °C 0 hPa Calm     Humidity % 0 mm
00:00 -16.1 °C -19.7 °C 34625.2 hPa SSW 9.3 km/h 19.6 km/h 62 % 0 mm
00:05 -16.1 °C -19.5 °C 34635.4 hPa NE 19.2 km/h 19.6 km/h 64 % 0 mm
00:10 -16.3 °C -19.5 °C 34635.4 hPa North 8 km/h 15 km/h 66 % 0 mm
00:15 -16.4 °C -19.5 °C 34635.4 hPa WNW 11.1 km/h 19.2 km/h 67 % 0 mm
00:20 -16.4 °C -19.7 °C 34645.6 hPa WSW 8 km/h 17.9 km/h 65 % 0 mm
00:26 -16.4 °C -19.6 °C 34645.6 hPa NE 13.2 km/h 13.2 km/h 66 % 0 mm
00:31 -16.5 °C -19.6 °C 34645.6 hPa Calm   10.3 km/h 67 % 0 mm
00:37 -16.6 °C -19.6 °C 34645.6 hPa Calm   7.6 km/h 67 % 0 mm
00:42 -16.6 °C -19.7 °C 34645.6 hPa WNW 10.3 km/h 10.3 km/h 67 % 0 mm
00:47 -16.7 °C -19.7 °C 34645.6 hPa East 7.6 km/h 7.6 km/h 68 % 0 mm
00:53 -16.8 °C -19.6 °C 34645.6 hPa Calm     69 % 0 mm
00:58 -16.8 °C -19.6 °C 34645.6 hPa ENE 4.7 km/h 4.7 km/h 69 % 0 mm
01:03 -16.8 °C -19.6 °C 34645.6 hPa NNE 7.6 km/h 10.3 km/h 69 % 0 mm
01:08 -16.9 °C -19.7 °C 34645.6 hPa North 7.6 km/h 16.9 km/h 70 % 0 mm
01:13 -16.9 °C -19.7 °C 34645.6 hPa NE 12.2 km/h 12.2 km/h 70 % 0 mm
01:18 -17 °C -19.7 °C 34645.6 hPa NNW 7.6 km/h 11.1 km/h 70 % 0 mm
01:23 -16.9 °C -19.8 °C 34645.6 hPa North 8 km/h 13.2 km/h 69 % 0 mm
01:28 -16.9 °C -19.7 °C 34645.6 hPa North 6.4 km/h 11.1 km/h 69 % 0 mm
01:33 -17 °C -19.7 °C 34645.6 hPa Calm     70 % 0 mm
01:38 -17.1 °C -19.9 °C 34645.6 hPa North 6.4 km/h 10.3 km/h 69 % 0 mm
01:43 -17 °C -19.8 °C 34645.6 hPa NE 5.1 km/h 9.3 km/h 69 % 0 mm
01:48 -16.9 °C -19.8 °C 34645.6 hPa North 6.4 km/h 8 km/h 68 % 0 mm
01:54 -17 °C -19.8 °C 34645.6 hPa North 5.1 km/h 9.3 km/h 69 % 0 mm
01:59 -17.1 °C -19.9 °C 34645.6 hPa NE 7.6 km/h 9.3 km/h 69 % 0 mm
02:04 -17 °C -19.9 °C 34645.6 hPa NNE 5.1 km/h 8 km/h 68 % 0 mm
02:09 -16.9 °C -19.8 °C 34645.6 hPa NNE 10.3 km/h 10.3 km/h 68 % 0 mm
02:14 -16.8 °C -19.9 °C 34645.6 hPa NNE 7.6 km/h 10.3 km/h 67 % 0 mm
02:19 -16.9 °C -19.8 °C 34645.6 hPa North 9.3 km/h 9.3 km/h 68 % 0 mm
02:24 -16.9 °C -19.8 °C 34645.6 hPa North 14 km/h 14 km/h 68 % 0 mm
02:29 -16.8 °C -19.8 °C 34645.6 hPa North 7.6 km/h 10.3 km/h 67 % 0 mm
02:34 -16.7 °C -19.9 °C 34645.6 hPa NNE 16.3 km/h 16.9 km/h 66 % 0 mm
02:39 -16.6 °C -19.9 °C 34645.6 hPa NNE 13.2 km/h 16.3 km/h 65 % 0 mm
02:45 -16.6 °C -19.9 °C 34645.6 hPa NNE 8 km/h 14 km/h 65 % 0 mm
02:50 -16.7 °C -19.9 °C 34645.6 hPa NNE 15 km/h 15 km/h 66 % 0 mm
02:55 -16.7 °C -19.9 °C 34645.6 hPa NNE 11.1 km/h 12.2 km/h 66 % 0 mm
03:01 -16.8 °C -19.8 °C 34645.6 hPa NNE 3.4 km/h 9.3 km/h 68 % 0 mm
03:06 -17.1 °C -19.9 °C 34659.1 hPa ENE 8 km/h 10.3 km/h 69 % 0 mm
03:11 -17.1 °C -20 °C 34659.1 hPa NE 6.4 km/h 9.3 km/h 68 % 0 mm
03:16 -16.9 °C -20 °C 34659.1 hPa NE 4.7 km/h 8 km/h 67 % 0 mm
03:21 -16.9 °C -19.9 °C 34645.6 hPa NE 3.4 km/h 6.4 km/h 67 % 0 mm
03:27 -17 °C -19.9 °C 34645.6 hPa NNE 10.3 km/h 12.2 km/h 68 % 0 mm
03:32 -17.1 °C -19.5 °C 34645.6 hPa NW 5.1 km/h 7.6 km/h 73 % 0 mm
03:37 -17.4 °C -19.8 °C 34645.6 hPa NE 7.6 km/h 10.3 km/h 73 % 0 mm
03:42 -17.3 °C -19.9 °C 34645.6 hPa NE 6.4 km/h 9.3 km/h 71 % 0 mm
03:47 -17.3 °C -19.9 °C 34645.6 hPa ENE 6.4 km/h 9.3 km/h 71 % 0 mm
03:52 -17.3 °C -20 °C 34645.6 hPa NE 10.3 km/h 12.2 km/h 70 % 0 mm
03:57 -17.2 °C -20 °C 34645.6 hPa Calm   9.3 km/h 69 % 0 mm
04:02 -17.1 °C -19.9 °C 34645.6 hPa East 4.7 km/h 5.1 km/h 69 % 0 mm
04:07 -17.2 °C -20 °C 34645.6 hPa Calm     69 % 0 mm
04:12 -17.2 °C -19.9 °C 34645.6 hPa NNW 5.1 km/h 8 km/h 70 % 0 mm
04:17 -17.2 °C -19.9 °C 34645.6 hPa NNE 5.1 km/h 8 km/h 70 % 0 mm
04:23 -17.3 °C -20 °C 34645.6 hPa NNE 5.1 km/h 6.4 km/h 70 % 0 mm
04:28 -17.3 °C -19.9 °C 34645.6 hPa NE 4.7 km/h 8 km/h 71 % 0 mm
04:33 -17.3 °C -20 °C 34645.6 hPa Calm   7.6 km/h 70 % 0 mm
04:38 -17.3 °C -20.1 °C 34645.6 hPa NNE 10.3 km/h 10.3 km/h 69 % 0 mm
04:43 -17.1 °C -19.9 °C 34645.6 hPa NNE 7.6 km/h 9.3 km/h 69 % 0 mm
04:48 -17.1 °C -19.9 °C 34645.6 hPa NNE 9.3 km/h 10.3 km/h 69 % 0 mm
04:53 -17.2 °C -20 °C 34645.6 hPa NNE 13.2 km/h 13.2 km/h 69 % 0 mm
04:58 -17.1 °C -20.1 °C 34645.6 hPa NE 14 km/h 14 km/h 68 % 0 mm
05:03 -17.1 °C -19.9 °C 34645.6 hPa NNE 9.3 km/h 12.2 km/h 69 % 0 mm
05:09 -17.1 °C -20.1 °C 34645.6 hPa North 8 km/h 14 km/h 68 % 0 mm
05:14 -17 °C -20.1 °C 34645.6 hPa North 7.6 km/h 12.2 km/h 67 % 0 mm
05:19 -16.9 °C -19.9 °C 34645.6 hPa NNE 9.3 km/h 14 km/h 68 % 0 mm
05:24 -17 °C -20.1 °C 34645.6 hPa North 7.6 km/h 14 km/h 67 % 0 mm
05:29 -16.9 °C -20 °C 34645.6 hPa NE 10.3 km/h 13.2 km/h 67 % 0 mm
05:34 -17 °C -20.1 °C 34645.6 hPa NNE 12.2 km/h 19.2 km/h 67 % 0 mm
05:39 -17 °C -20.1 °C 34645.6 hPa NW 10.3 km/h 13.2 km/h 67 % 0 mm
05:44 -17.1 °C -20.1 °C 34645.6 hPa ENE 7.6 km/h 10.3 km/h 68 % 0 mm
05:49 -17.1 °C -20.1 °C 34645.6 hPa NE 7.6 km/h 10.3 km/h 68 % 0 mm
05:54 -17.2 °C -20 °C 34645.6 hPa NE 9.3 km/h 12.2 km/h 69 % 0 mm
05:59 -17.3 °C -20.1 °C 34645.6 hPa NNW 9.3 km/h 11.1 km/h 69 % 0 mm
06:04 -17.2 °C -20.1 °C 34645.6 hPa NNE 11.1 km/h 12.2 km/h 68 % 0 mm
06:09 -17.1 °C -20.1 °C 34645.6 hPa North 9.3 km/h 14 km/h 68 % 0 mm
06:14 -17.2 °C -20 °C 34645.6 hPa NNE 9.3 km/h 11.1 km/h 69 % 0 mm
06:19 -17.2 °C -20.1 °C 34645.6 hPa North 10.3 km/h 15 km/h 68 % 0 mm
06:24 -17.1 °C -20.1 °C 34645.6 hPa NNE 5.1 km/h 13.2 km/h 68 % 0 mm
06:29 -17.1 °C -20.1 °C 34645.6 hPa North 12.2 km/h 13.2 km/h 68 % 0 mm
06:34 -17.1 °C -20.1 °C 34645.6 hPa North 6.4 km/h 15 km/h 68 % 0 mm
06:39 -17.1 °C -20 °C 34645.6 hPa NNE 11.1 km/h 19.2 km/h 68 % 0 mm
06:44 -17 °C -19.9 °C 34645.6 hPa North 13.2 km/h 17.9 km/h 68 % 0 mm
06:49 -17 °C -20.1 °C 34645.6 hPa NE 12.2 km/h 22 km/h 67 % 0 mm
06:54 -16.8 °C -20 °C 34645.6 hPa NNE 8 km/h 14 km/h 66 % 0 mm
06:59 -16.9 °C -20 °C 34645.6 hPa NE 9.3 km/h 11.1 km/h 67 % 0 mm
07:04 -17.1 °C -20 °C 34645.6 hPa NE 8 km/h 13.2 km/h 68 % 0 mm
07:10 -17.3 °C -19.7 °C 34645.6 hPa NE 9.3 km/h 10.3 km/h 73 % 0 mm
07:15 -17.4 °C -19.9 °C 34645.6 hPa NE 9.3 km/h 9.3 km/h 72 % 0 mm
07:20 -17.6 °C -20.1 °C 34659.1 hPa NNE 9.3 km/h 12.2 km/h 72 % 0 mm
07:25 -17.3 °C -20 °C 34659.1 hPa NNE 12.2 km/h 14 km/h 70 % 0 mm
07:31 -17.3 °C -20.1 °C 34659.1 hPa NE 10.3 km/h 11.1 km/h 69 % 0 mm
07:36 -17.2 °C -20.1 °C 34659.1 hPa NNE 16.3 km/h 16.3 km/h 68 % 0 mm
07:41 -17.1 °C -20.1 °C 34659.1 hPa NNE 9.3 km/h 14 km/h 67 % 0 mm
07:46 -17 °C -20.2 °C 34659.1 hPa NNE 8 km/h 11.1 km/h 66 % 0 mm
07:52 -17.1 °C -20.1 °C 34659.1 hPa NNE 7.6 km/h 12.2 km/h 67 % 0 mm
07:57 -17 °C -20.1 °C 34659.1 hPa North 13.2 km/h 14 km/h 67 % 0 mm
08:02 -17.2 °C -20.1 °C 34659.1 hPa NNE 13.2 km/h 14 km/h 68 % 0 mm
08:07 -17.3 °C -20.2 °C 34659.1 hPa NNE 9.3 km/h 13.2 km/h 68 % 0 mm
08:12 -17.3 °C -20 °C 34659.1 hPa North 8 km/h 12.2 km/h 70 % 0 mm
08:17 -17.3 °C -20.1 °C 34669.3 hPa NNE 8 km/h 12.2 km/h 69 % 0 mm
08:22 -17.3 °C -20.2 °C 34669.3 hPa NE 10.3 km/h 10.3 km/h 68 % 0 mm
08:27 -17.3 °C -20.1 °C 34669.3 hPa East 3.4 km/h 11.1 km/h 69 % 0 mm
08:32 -17.3 °C -20.2 °C 34669.3 hPa NNE 6.4 km/h 12.2 km/h 68 % 0 mm
08:37 -17.2 °C -20.2 °C 34669.3 hPa NE 9.3 km/h 9.3 km/h 67 % 0 mm
08:42 -17.2 °C -20.2 °C 34669.3 hPa NE 7.6 km/h 9.3 km/h 67 % 0 mm
08:47 -17.2 °C -20.2 °C 34669.3 hPa ENE 10.3 km/h 11.1 km/h 67 % 0 mm
08:52 -17.2 °C -20.1 °C 34669.3 hPa ENE 7.6 km/h 10.3 km/h 68 % 0 mm
08:57 -17.2 °C -20.2 °C 34669.3 hPa Calm   6.4 km/h 67 % 0 mm
09:03 -17.2 °C -20.2 °C 34669.3 hPa NE 3.4 km/h 3.4 km/h 67 % 0 mm
09:08 -17.2 °C -20.2 °C 34669.3 hPa NE 3.4 km/h 3.4 km/h 67 % 0 mm
09:14 -17.2 °C -20.1 °C 34669.3 hPa NW 6.4 km/h 9.3 km/h 68 % 0 mm
09:19 -17.3 °C -20.1 °C 34669.3 hPa Calm     69 % 0 mm
09:24 -17.3 °C -20.1 °C 34669.3 hPa Calm     69 % 0 mm
09:30 -17.3 °C -19.9 °C 34669.3 hPa NNE 3.4 km/h 5.1 km/h 71 % 0 mm
09:35 -17.2 °C -19.9 °C 34682.8 hPa Calm     70 % 0 mm
09:40 -17.1 °C -19.9 °C 34682.8 hPa Calm     69 % 0 mm
09:46 -16.9 °C -19.7 °C 34682.8 hPa Calm     69 % 0 mm
09:51 -16.7 °C -19.7 °C 34682.8 hPa Calm     68 % 0 mm
09:58 -16.5 °C -19.6 °C 34682.8 hPa NNE 6.4 km/h 6.4 km/h 67 % 0 mm
10:04 -16.4 °C -19.6 °C 34682.8 hPa Calm     66 % 0 mm
10:09 -16.3 °C -19.6 °C 34682.8 hPa ENE 12.2 km/h 12.2 km/h 65 % 0 mm
10:15 -16.2 °C -19.6 °C 34682.8 hPa Calm   10.3 km/h 64 % 0 mm
10:20 -16 °C -19.6 °C 34682.8 hPa Calm     63 % 0 mm
10:25 -15.9 °C -19.6 °C 34682.8 hPa WNW 6.4 km/h 8 km/h 62 % 0 mm
10:30 -15.8 °C -19.6 °C 34682.8 hPa WNW 5.1 km/h 12.2 km/h 61 % 0 mm
10:35 -15.8 °C -19.4 °C 34693 hPa WNW 4.7 km/h 7.6 km/h 62 % 0 mm
10:41 -15.7 °C -19.6 °C 34693 hPa Calm   9.3 km/h 60 % 0 mm
10:46 -15.7 °C -19.5 °C 34693 hPa SW 8 km/h 9.3 km/h 61 % 0 mm
10:51 -15.8 °C -19.4 °C 34693 hPa SSE 6.4 km/h 11.1 km/h 62 % 0 mm
10:57 -15.8 °C -19.6 °C 34693 hPa Calm   6.4 km/h 61 % 0 mm
11:03 -15.8 °C -19.3 °C 34693 hPa NW 6.4 km/h 7.6 km/h 63 % 0 mm
11:08 -15.9 °C -19.7 °C 34693 hPa NE 9.3 km/h 15 km/h 61 % 0 mm
11:13 -15.9 °C -19.7 °C 34693 hPa WNW 4.7 km/h 12.2 km/h 61 % 0 mm
11:18 -15.9 °C -19.6 °C 34693 hPa WSW 3.4 km/h 8 km/h 62 % 0 mm
11:23 -15.9 °C -19.4 °C 34693 hPa West 4.7 km/h 11.1 km/h 63 % 0 mm
11:28 -15.9 °C -19.3 °C 34693 hPa Calm   9.3 km/h 64 % 0 mm
11:33 -15.9 °C -19.4 °C 34693 hPa Calm   8 km/h 64 % 0 mm
11:38 -16 °C -19.2 °C 34693 hPa Calm   5.1 km/h 66 % 0 mm
11:43 -15.9 °C -19.3 °C 34693 hPa WNW 4.7 km/h 7.6 km/h 65 % 0 mm
11:48 -15.9 °C -19.5 °C 34693 hPa Calm     63 % 0 mm
11:53 -15.9 °C -19.6 °C 34693 hPa NE 8 km/h 11.1 km/h 62 % 0 mm
11:58 -15.8 °C -19.5 °C 34693 hPa WNW 3.4 km/h 8 km/h 62 % 0 mm
12:03 -15.7 °C -19.4 °C 34693 hPa SE 9.3 km/h 11.1 km/h 62 % 0 mm
12:08 -15.6 °C -19.3 °C 34693 hPa NW 10.3 km/h 11.1 km/h 61 % 0 mm
12:13 -15.4 °C -19.1 °C 34693 hPa WNW 13.2 km/h 13.2 km/h 62 % 0 mm
12:18 -15.4 °C -19.5 °C 34693 hPa NNE 7.6 km/h 12.2 km/h 59 % 0 mm
12:23 -15.4 °C -19.4 °C 34693 hPa ESE 3.4 km/h 10.3 km/h 59 % 0 mm
12:28 -15.2 °C -19.4 °C 34693 hPa SSW 3.4 km/h 15 km/h 58 % 0 mm
12:33 -15.1 °C -19.3 °C 34693 hPa Calm   7.6 km/h 58 % 0 mm
12:38 -14.9 °C -19.2 °C 34693 hPa Calm   11.1 km/h 58 % 0 mm
12:43 -15 °C -19.3 °C 34693 hPa ESE 7.6 km/h 19.2 km/h 57 % 0 mm
12:48 -15.1 °C -19.5 °C 34693 hPa ENE 9.3 km/h 23.8 km/h 56 % 0 mm
12:53 -15.1 °C -19.4 °C 34693 hPa SE 7.6 km/h 13.2 km/h 57 % 0 mm
12:58 -15 °C -19.3 °C 34693 hPa SSE 6.4 km/h 16.9 km/h 57 % 0 mm
13:03 -15.1 °C -19.5 °C 34693 hPa ENE 19.6 km/h 23.8 km/h 56 % 0 mm
13:08 -15.1 °C -19.4 °C 34693 hPa ENE 12.2 km/h 24.8 km/h 57 % 0 mm
13:13 -15.1 °C -19.4 °C 34693 hPa SE 13.2 km/h 20.9 km/h 57 % 0 mm
13:18 -15.1 °C -19.3 °C 34693 hPa East 13.2 km/h 16.9 km/h 58 % 0 mm
13:23 -15.1 °C -19.5 °C 34693 hPa ENE 11.1 km/h 23.8 km/h 56 % 0 mm
13:28 -15.1 °C -19.4 °C 34693 hPa NE 16.9 km/h 19.6 km/h 57 % 0 mm
13:33 -15.1 °C -19.4 °C 34693 hPa NE 30.7 km/h 32.3 km/h 57 % 0 mm
13:38 -15.1 °C -19.4 °C 34693 hPa East 24.8 km/h 33.6 km/h 57 % 0 mm
13:43 -15.1 °C -19.3 °C 34693 hPa ENE 12.2 km/h 19.2 km/h 58 % 0 mm
13:48 -15.1 °C -19.3 °C 34693 hPa East 16.3 km/h 20.9 km/h 58 % 0 mm
13:53 -15.1 °C -19.2 °C 34693 hPa East 16.9 km/h 19.2 km/h 59 % 0 mm
13:58 -15.1 °C -19.4 °C 34693 hPa NNE 14 km/h 23.8 km/h 57 % 0 mm
14:03 -15.1 °C -19.4 °C 34693 hPa East 19.2 km/h 23.8 km/h 57 % 0 mm
14:08 -15.1 °C -19.4 °C 34693 hPa ENE 16.9 km/h 16.9 km/h 57 % 0 mm
14:13 -15.1 °C -19.5 °C 34693 hPa East 12.2 km/h 22.5 km/h 56 % 0 mm
14:18 -15.1 °C -19.3 °C 34693 hPa NNE 13.2 km/h 23.8 km/h 58 % 0 mm
14:23 -15 °C -19.3 °C 34693 hPa SSW 13.2 km/h 16.3 km/h 57 % 0 mm
14:28 -15 °C -19.5 °C 34693 hPa ENE 14 km/h 22.5 km/h 56 % 0 mm
14:33 -15.1 °C -19.5 °C 34693 hPa East 14 km/h 19.6 km/h 56 % 0 mm
14:38 -15.1 °C -19.4 °C 34693 hPa SSE 16.9 km/h 19.2 km/h 57 % 0 mm
14:43 -15 °C -19.3 °C 34693 hPa SSE 11.1 km/h 16.9 km/h 57 % 0 mm
14:49 -14.9 °C -19.3 °C 34693 hPa ENE 11.1 km/h 16.9 km/h 57 % 0 mm
14:54 -14.9 °C -19.4 °C 34693 hPa ENE 22 km/h 22 km/h 56 % 0 mm
14:59 -14.9 °C -19.2 °C 34693 hPa East 20.9 km/h 20.9 km/h 58 % 0 mm
15:04 -15.1 °C -19.5 °C 34693 hPa ENE 15 km/h 22 km/h 56 % 0 mm
15:09 -15.1 °C -19.4 °C 34693 hPa ENE 13.2 km/h 19.6 km/h 57 % 0 mm
15:14 -15.2 °C -19.6 °C 34693 hPa ENE 7.6 km/h 15 km/h 57 % 0 mm
15:19 -15.3 °C -19.5 °C 34693 hPa East 5.1 km/h 11.1 km/h 58 % 0 mm
15:24 -15.3 °C -19.5 °C 34693 hPa SE 12.2 km/h 16.3 km/h 58 % 0 mm
15:29 -15.4 °C -19.5 °C 34693 hPa ENE 9.3 km/h 11.1 km/h 59 % 0 mm
15:34 -15.4 °C -19.5 °C 34703.1 hPa East 7.6 km/h 13.2 km/h 59 % 0 mm
15:39 -15.5 °C -19.4 °C 34703.1 hPa NE 5.1 km/h 8 km/h 60 % 0 mm
15:44 -15.6 °C -19.2 °C 34703.1 hPa NE 4.7 km/h 4.7 km/h 62 % 0 mm
15:49 -15.6 °C -19.4 °C 34703.1 hPa Calm     61 % 0 mm
15:54 -15.7 °C -19.4 °C 34703.1 hPa Calm     61 % 0 mm
15:59 -15.7 °C -19.2 °C 34703.1 hPa East 6.4 km/h 9.3 km/h 64 % 0 mm
16:04 -15.7 °C -19.1 °C 34703.1 hPa Calm     65 % 0 mm
16:10 -15.8 °C -19.2 °C 34703.1 hPa Calm   4.7 km/h 64 % 0 mm
16:15 -15.8 °C -18.8 °C 34703.1 hPa Calm     68 % 0 mm
16:20 -15.9 °C -19.2 °C 34703.1 hPa Calm     65 % 0 mm
16:26 -15.9 °C -19.3 °C 34703.1 hPa SE 4.7 km/h 9.3 km/h 64 % 0 mm
16:31 -15.8 °C -19.4 °C 34703.1 hPa Calm   7.6 km/h 63 % 0 mm
16:36 -15.8 °C -19.3 °C 34703.1 hPa ENE 3.4 km/h 7.6 km/h 64 % 0 mm
16:41 -15.8 °C -19.2 °C 34703.1 hPa Calm     64 % 0 mm
16:46 -15.8 °C -19.3 °C 34703.1 hPa Calm     64 % 0 mm
16:51 -15.8 °C -19.1 °C 34703.1 hPa SSW 7.6 km/h 8 km/h 65 % 0 mm
16:56 -15.8 °C -19.2 °C 34703.1 hPa SW 10.3 km/h 12.2 km/h 64 % 0 mm
17:01 -15.8 °C -19.3 °C 34703.1 hPa SW 6.4 km/h 6.4 km/h 64 % 0 mm
17:06 -15.8 °C -19.2 °C 34716.7 hPa Calm     65 % 0 mm
17:11 -15.9 °C -19.2 °C 34716.7 hPa NE 6.4 km/h 11.1 km/h 65 % 0 mm
17:16 -15.9 °C -19.6 °C 34716.7 hPa ENE 3.4 km/h 9.3 km/h 62 % 0 mm
17:21 -15.9 °C -19.4 °C 34726.8 hPa SE 7.6 km/h 7.6 km/h 63 % 0 mm
17:26 -15.9 °C -19.4 °C 34726.8 hPa East 6.4 km/h 9.3 km/h 64 % 0 mm
17:31 -15.9 °C -19.3 °C 34726.8 hPa Calm   5.1 km/h 65 % 0 mm
17:37 -16 °C -19.7 °C 34726.8 hPa Calm     62 % 0 mm
17:42 -16 °C -19.8 °C 34726.8 hPa Calm   3.4 km/h 61 % 0 mm
17:47 -16 °C -19.4 °C 34726.8 hPa Calm     64 % 0 mm
17:52 -16.1 °C -19.4 °C 34726.8 hPa Calm     64 % 0 mm
17:57 -16.1 °C -19.3 °C 34726.8 hPa Calm     66 % 0 mm
18:02 -16.2 °C -19.4 °C 34740.4 hPa Calm   4.7 km/h 65 % 0 mm
18:07 -16.2 °C -19.4 °C 34740.4 hPa Calm     66 % 0 mm
18:12 -16.2 °C -19.1 °C 34740.4 hPa Calm     69 % 0 mm
18:17 -16.3 °C -19.1 °C 34740.4 hPa Calm     70 % 0 mm
18:22 -16.4 °C -18.9 °C 34740.4 hPa North 4.7 km/h 6.4 km/h 72 % 0 mm
18:27 -16.5 °C -18.8 °C 34740.4 hPa Calm     74 % 0 mm
18:32 -16.6 °C -18.9 °C 34740.4 hPa Calm     73 % 0 mm
18:37 -16.6 °C -18.9 °C 34740.4 hPa East 9.3 km/h 10.3 km/h 73 % 0 mm
18:42 -16.6 °C -19.4 °C 34740.4 hPa East 7.6 km/h 8 km/h 69 % 0 mm
18:47 -16.6 °C -19.1 °C 34740.4 hPa East 5.1 km/h 7.6 km/h 72 % 0 mm
18:52 -16.6 °C -18.9 °C 34740.4 hPa Calm   4.7 km/h 74 % 0 mm
18:57 -16.7 °C -19.3 °C 34740.4 hPa Calm   3.4 km/h 71 % 0 mm
19:02 -16.7 °C -19.2 °C 34750.5 hPa Calm     72 % 0 mm
19:07 -16.8 °C -19.2 °C 34750.5 hPa Calm   6.4 km/h 73 % 0 mm
19:12 -16.8 °C -19.1 °C 34750.5 hPa Calm     74 % 0 mm
19:17 -16.8 °C -19.1 °C 34750.5 hPa Calm     75 % 0 mm
19:22 -16.9 °C -19.2 °C 34750.5 hPa Calm     74 % 0 mm
19:27 -16.9 °C -19.1 °C 34750.5 hPa Calm     75 % 0 mm
19:32 -16.9 °C -19.1 °C 34750.5 hPa Calm     75 % 0 mm
19:37 -16.9 °C -19.2 °C 34750.5 hPa Calm     74 % 0 mm
19:42 -16.9 °C -19.1 °C 34750.5 hPa Calm     75 % 0 mm
19:48 -16.9 °C -18.9 °C 34740.4 hPa East 9.3 km/h 10.3 km/h 77 % 0 mm
19:53 -17 °C -19.1 °C 34740.4 hPa ENE 9.3 km/h 12.2 km/h 76 % 0 mm
19:58 -17 °C -19 °C 34740.4 hPa Calm   4.7 km/h 77 % 0 mm
20:03 -17 °C -19 °C 34740.4 hPa Calm     77 % 0 mm
20:08 -17 °C -19.1 °C 34740.4 hPa Calm     76 % 0 mm
20:13 -17.1 °C -19.2 °C 34740.4 hPa Calm     76 % 0 mm
20:19 -17.1 °C -19.1 °C 34750.5 hPa Calm     77 % 0 mm
20:24 -17.1 °C -19.1 °C 34750.5 hPa East 4.7 km/h 7.6 km/h 77 % 0 mm
20:29 -17.1 °C -19.2 °C 34750.5 hPa East 6.4 km/h 6.4 km/h 76 % 0 mm
20:34 -17.1 °C -19.2 °C 34750.5 hPa Calm   4.7 km/h 76 % 0 mm
20:39 -17.1 °C -19.2 °C 34750.5 hPa Calm     75 % 0 mm
20:44 -17 °C -19.1 °C 34750.5 hPa Calm     76 % 0 mm
20:49 -17.1 °C -19.1 °C 34750.5 hPa Calm     77 % 0 mm
20:55 -17.1 °C -19.1 °C 34750.5 hPa Calm     77 % 0 mm
21:00 -17.1 °C -18.9 °C 34750.5 hPa Calm     78 % 0 mm
21:05 -17.1 °C -18.9 °C 34760.7 hPa Calm     78 % 0 mm
21:10 -17.1 °C -18.9 °C 34760.7 hPa Calm     78 % 0 mm
21:15 -17.1 °C -18.9 °C 34760.7 hPa Calm     78 % 0 mm
21:20 -17.1 °C -19 °C 34760.7 hPa Calm     78 % 0 mm
21:26 -17.1 °C -18.9 °C 34760.7 hPa Calm     79 % 0 mm
21:31 -17.1 °C -18.9 °C 34760.7 hPa Calm     79 % 0 mm
21:37 -17.2 °C -18.9 °C 34760.7 hPa Calm     80 % 0 mm
21:42 -17.2 °C -18.9 °C 34760.7 hPa Calm     80 % 0 mm
21:47 -17.2 °C -18.9 °C 34760.7 hPa Calm     79 % 0 mm
21:52 -17.2 °C -19.1 °C 34760.7 hPa Calm     78 % 0 mm
21:57 -17.2 °C -19.3 °C 34760.7 hPa Calm     76 % 0 mm
22:02 -17.2 °C -19.3 °C 34760.7 hPa Calm     76 % 0 mm
22:07 -17.1 °C -19 °C 34760.7 hPa Calm     78 % 0 mm
22:13 -17.1 °C -18.9 °C 34760.7 hPa Calm     79 % 0 mm
22:19 -17.1 °C -18.8 °C 34760.7 hPa Calm     80 % 0 mm
22:25 -17.2 °C -18.9 °C 34760.7 hPa Calm     79 % 0 mm
22:30 -17.2 °C -18.9 °C 34760.7 hPa Calm     80 % 0 mm
Foreneset verstasjon Ryfylket
Compliments of Weather Underground - 3.5 mb

Script utviklet av  Jim McMurry - jmcmurry@mwt.net Tilrettelagt for malen av  Wim van der Kuil - Leuven-Template.eu

Du finner vår vær info også på:


European Weather Network

WeatherCloud

Weather Underground

Citizen Weather Observer Program (CWOP)

Utstyr vi bruker:


Værstsjon
Oregon scientific WMR 300

Værprogram
Meteobridge

Oregon scientific WMR 300

Meteobridge